createdAt,value
2022-09-15T00:01:49.114Z,1.87
2022-09-15T00:04:36.648Z,3.13
2022-09-15T00:07:24.224Z,2.40
2022-09-15T00:10:11.985Z,2.27
2022-09-15T00:12:59.023Z,1.97
2022-09-15T00:15:46.071Z,2.23
2022-09-15T00:18:33.918Z,1.47
2022-09-15T00:21:24.810Z,3.37
2022-09-15T00:24:11.797Z,1.97
2022-09-15T00:26:58.737Z,3.60
2022-09-15T00:29:45.640Z,1.93
2022-09-15T00:32:33.084Z,2.57
2022-09-15T00:35:20.117Z,2.90
2022-09-15T00:38:08.725Z,2.00
2022-09-15T00:40:57.897Z,2.93
2022-09-15T00:43:57.201Z,3.20
2022-09-15T00:47:04.276Z,1.90
2022-09-15T00:50:11.218Z,1.67
2022-09-15T00:53:05.939Z,1.80
2022-09-15T00:55:54.171Z,1.40
2022-09-15T00:58:57.623Z,1.80
2022-09-15T01:01:47.039Z,1.53
2022-09-15T01:04:34.099Z,2.33
2022-09-15T01:07:32.489Z,2.10
2022-09-15T01:10:25.306Z,2.80
2022-09-15T01:13:14.972Z,1.77
2022-09-15T01:16:54.975Z,1.67
2022-09-15T01:20:14.390Z,2.10
2022-09-15T01:23:38.576Z,2.23
2022-09-15T01:27:18.759Z,5.10
2022-09-15T01:30:23.477Z,2.03
2022-09-15T01:33:31.140Z,3.37
2022-09-15T01:36:23.054Z,2.70
2022-09-15T01:39:18.226Z,3.07
2022-09-15T01:42:07.627Z,3.63
2022-09-15T01:45:23.471Z,2.63
2022-09-15T01:48:11.525Z,2.67
2022-09-15T01:51:02.217Z,3.83
2022-09-15T01:53:51.369Z,1.10
2022-09-15T01:56:39.107Z,3.07
2022-09-15T01:59:26.625Z,1.80
2022-09-15T02:02:38.770Z,2.80
2022-09-15T02:05:42.295Z,2.10
2022-09-15T02:08:42.749Z,2.10
2022-09-15T02:11:30.284Z,1.50
2022-09-15T02:14:31.186Z,1.73
2022-09-15T02:17:20.714Z,1.90
2022-09-15T02:20:08.736Z,1.83
2022-09-15T02:23:00.035Z,1.63
2022-09-15T02:25:56.758Z,3.17
2022-09-15T02:28:47.503Z,1.70
2022-09-15T02:31:39.467Z,2.63
2022-09-15T02:34:32.462Z,3.97
2022-09-15T02:37:22.895Z,2.63
2022-09-15T02:40:10.834Z,2.07
2022-09-15T02:43:03.296Z,2.67
2022-09-15T02:45:50.727Z,2.70
2022-09-15T02:48:37.749Z,2.67
2022-09-15T02:51:24.818Z,2.17
2022-09-15T02:54:12.221Z,4.20
2022-09-15T02:57:00.188Z,3.10
2022-09-15T03:00:05.502Z,2.47
2022-09-15T03:02:54.385Z,2.40
2022-09-15T03:05:41.318Z,1.57
2022-09-15T03:08:28.736Z,2.20
2022-09-15T03:11:15.978Z,2.87
2022-09-15T03:14:05.867Z,1.70
2022-09-15T03:16:53.799Z,1.60
2022-09-15T03:19:40.867Z,1.63
2022-09-15T03:22:28.056Z,2.20
2022-09-15T03:25:15.943Z,1.87
2022-09-15T03:28:03.005Z,2.20
2022-09-15T03:30:49.938Z,2.60
2022-09-15T03:33:37.338Z,1.80
2022-09-15T03:36:24.411Z,1.97
2022-09-15T03:39:14.479Z,1.43
2022-09-15T03:42:01.372Z,1.33
2022-09-15T03:44:48.456Z,1.50
2022-09-15T03:47:35.388Z,1.83
2022-09-15T03:50:22.319Z,2.70
2022-09-15T03:53:09.270Z,2.00
2022-09-15T03:56:07.467Z,1.60
2022-09-15T03:58:54.557Z,1.40
2022-09-15T04:01:42.135Z,2.97
2022-09-15T04:04:29.211Z,4.30
2022-09-15T04:07:16.153Z,1.70
2022-09-15T04:10:04.054Z,1.73
2022-09-15T04:12:52.465Z,1.67
2022-09-15T04:15:39.394Z,2.20
2022-09-15T04:18:27.180Z,1.67
2022-09-15T04:21:18.078Z,1.43
2022-09-15T04:24:05.907Z,1.40
2022-09-15T04:26:52.918Z,1.20
2022-09-15T04:29:39.835Z,1.97
2022-09-15T04:32:28.755Z,1.50
2022-09-15T04:35:16.573Z,1.20
2022-09-15T04:38:03.535Z,1.43
2022-09-15T04:40:50.495Z,1.63
2022-09-15T04:43:37.979Z,3.07
2022-09-15T04:46:25.533Z,1.80
2022-09-15T04:49:12.786Z,2.20
2022-09-15T04:51:59.742Z,1.70
2022-09-15T04:54:46.649Z,1.67
2022-09-15T04:57:33.619Z,1.70
2022-09-15T05:00:20.671Z,1.30
2022-09-15T05:03:07.591Z,2.03
2022-09-15T05:05:54.499Z,2.73
2022-09-15T05:08:41.659Z,1.40
2022-09-15T05:11:30.891Z,1.50
2022-09-15T05:14:17.930Z,2.40
2022-09-15T05:17:04.908Z,1.50
2022-09-15T05:19:51.844Z,1.70
2022-09-15T05:22:41.835Z,2.47
2022-09-15T05:25:28.999Z,1.23
2022-09-15T05:28:15.946Z,1.53
2022-09-15T05:31:11.915Z,1.27
2022-09-15T05:34:02.638Z,2.73
2022-09-15T05:36:49.663Z,1.27
2022-09-15T05:39:37.677Z,1.27
2022-09-15T05:42:24.647Z,1.40
2022-09-15T05:45:11.531Z,3.53
2022-09-15T05:47:58.444Z,1.60
2022-09-15T05:50:49.979Z,1.30
2022-09-15T05:53:38.150Z,2.23
2022-09-15T05:56:25.089Z,1.73
2022-09-15T05:59:12.018Z,1.40
2022-09-15T06:01:59.210Z,1.90
2022-09-15T06:04:46.121Z,1.43
2022-09-15T06:07:33.033Z,2.47
2022-09-15T06:10:22.679Z,1.60
2022-09-15T06:13:09.660Z,2.50
2022-09-15T06:16:08.491Z,1.17
2022-09-15T06:18:55.489Z,1.20
2022-09-15T06:21:42.511Z,1.00
2022-09-15T06:24:29.490Z,1.20
2022-09-15T06:27:16.577Z,1.63
2022-09-15T06:30:03.817Z,2.20
2022-09-15T06:32:50.762Z,1.20
2022-09-15T06:35:37.684Z,1.20
2022-09-15T06:38:24.616Z,1.40
2022-09-15T06:41:12.338Z,1.10
2022-09-15T06:43:59.548Z,1.50
2022-09-15T06:46:46.595Z,1.77
2022-09-15T06:49:33.598Z,1.57
2022-09-15T06:52:20.714Z,1.10
2022-09-15T06:55:08.214Z,0.90
2022-09-15T06:57:55.220Z,1.63
2022-09-15T07:00:42.985Z,1.77
2022-09-15T07:03:30.733Z,0.90
2022-09-15T07:06:17.984Z,0.90
2022-09-15T07:09:06.203Z,1.10
2022-09-15T07:11:53.218Z,1.37
2022-09-15T07:14:40.179Z,1.07
2022-09-15T07:17:28.486Z,0.90
2022-09-15T07:20:15.430Z,1.33
2022-09-15T07:23:03.172Z,1.10
2022-09-15T07:25:50.066Z,1.47
2022-09-15T07:28:37.818Z,0.87
2022-09-15T07:31:26.444Z,1.50
2022-09-15T07:34:13.456Z,0.90
2022-09-15T07:37:00.382Z,1.37
2022-09-15T07:39:47.396Z,0.73
2022-09-15T07:42:35.537Z,0.90
2022-09-15T07:45:23.211Z,1.00
2022-09-15T07:48:10.326Z,1.00
2022-09-15T07:50:59.713Z,0.90
2022-09-15T07:53:47.890Z,0.70
2022-09-15T07:56:34.804Z,0.87
2022-09-15T07:59:21.716Z,0.90
2022-09-15T08:02:17.277Z,0.73
2022-09-15T08:05:04.468Z,0.80
2022-09-15T08:07:51.446Z,0.80
2022-09-15T08:10:41.034Z,1.00
2022-09-15T08:13:29.257Z,1.03
2022-09-15T08:16:19.421Z,1.10
2022-09-15T08:19:06.522Z,0.90
2022-09-15T08:21:53.636Z,0.70
2022-09-15T08:24:40.728Z,0.80
2022-09-15T08:27:27.798Z,0.87
2022-09-15T08:30:15.071Z,2.30
2022-09-15T08:33:01.987Z,0.80
2022-09-15T08:35:48.927Z,1.00
2022-09-15T08:38:35.837Z,0.97
2022-09-15T08:41:28.643Z,1.57
2022-09-15T08:44:34.373Z,0.90
2022-09-15T08:47:46.207Z,1.00
2022-09-15T08:50:43.361Z,1.00
2022-09-15T08:53:38.441Z,1.30
2022-09-15T08:56:28.740Z,1.10
2022-09-15T08:59:18.056Z,1.40
2022-09-15T09:02:23.387Z,0.80
2022-09-15T09:05:34.460Z,1.03
2022-09-15T09:08:33.633Z,0.83
2022-09-15T09:11:49.372Z,0.63
2022-09-15T09:15:05.661Z,1.07
2022-09-15T09:18:10.937Z,2.73
2022-09-15T09:21:29.431Z,1.20
2022-09-15T09:24:25.491Z,1.10
2022-09-15T09:27:19.037Z,0.90
2022-09-15T09:30:21.029Z,1.70
2022-09-15T09:33:30.342Z,1.70
2022-09-15T09:36:17.583Z,1.23
2022-09-15T09:39:05.101Z,0.80
2022-09-15T09:41:52.070Z,0.73
2022-09-15T09:44:40.443Z,1.20
2022-09-15T09:47:29.538Z,0.80
2022-09-15T09:50:43.530Z,1.63
2022-09-15T09:53:33.982Z,1.20
2022-09-15T09:56:26.628Z,1.50
2022-09-15T09:59:34.834Z,1.17
2022-09-15T10:02:26.782Z,1.13
2022-09-15T10:05:19.438Z,0.90
2022-09-15T10:08:06.759Z,0.90
2022-09-15T10:10:55.921Z,0.70
2022-09-15T10:13:55.378Z,1.33
2022-09-15T10:16:43.053Z,1.87
2022-09-15T10:19:33.130Z,1.03
2022-09-15T10:22:23.577Z,1.03
2022-09-15T10:25:44.562Z,0.73
2022-09-15T10:28:37.436Z,0.80
2022-09-15T10:31:30.309Z,1.00
2022-09-15T10:34:31.624Z,1.10
2022-09-15T10:37:29.543Z,0.80
2022-09-15T10:40:37.078Z,1.00
2022-09-15T10:43:35.429Z,0.80
2022-09-15T10:46:39.546Z,0.80
2022-09-15T10:49:45.958Z,0.80
2022-09-15T10:53:02.321Z,0.80
2022-09-15T10:55:57.910Z,0.90
2022-09-15T10:58:55.734Z,0.97
2022-09-15T11:01:52.560Z,1.47
2022-09-15T11:04:47.273Z,0.80
2022-09-15T11:07:40.164Z,1.50
2022-09-15T11:11:00.764Z,0.80
2022-09-15T11:14:07.967Z,1.00
2022-09-15T11:17:24.751Z,0.60
2022-09-15T11:20:56.257Z,1.67
2022-09-15T11:23:59.304Z,0.70
2022-09-15T11:26:53.357Z,1.17
2022-09-15T11:29:43.180Z,0.60
2022-09-15T11:32:44.985Z,1.13
2022-09-15T11:35:45.537Z,3.37
2022-09-15T11:39:13.141Z,0.53
2022-09-15T11:42:25.059Z,0.57
2022-09-15T11:45:24.335Z,0.47
2022-09-15T11:48:16.034Z,0.40
2022-09-15T11:51:05.336Z,0.40
2022-09-15T11:54:15.891Z,0.40
2022-09-15T11:57:02.881Z,0.50
2022-09-15T12:00:20.693Z,0.40
2022-09-15T12:03:21.802Z,0.47
2022-09-15T12:06:24.710Z,0.93
2022-09-15T12:09:14.141Z,0.40
2022-09-15T12:12:07.201Z,0.50
2022-09-15T12:14:54.733Z,0.60
2022-09-15T12:17:51.976Z,0.60
2022-09-15T12:20:59.078Z,0.60
2022-09-15T12:24:04.898Z,0.50
2022-09-15T12:26:52.110Z,1.07
2022-09-15T12:29:42.037Z,0.40
2022-09-15T12:32:31.976Z,0.60
2022-09-15T12:35:18.869Z,0.60
2022-09-15T12:38:13.626Z,0.60
2022-09-15T12:41:00.581Z,0.57
2022-09-15T12:43:57.591Z,0.63
2022-09-15T12:46:51.873Z,0.50
2022-09-15T12:49:45.582Z,0.40
2022-09-15T12:52:55.109Z,0.50
2022-09-15T12:55:58.718Z,0.50
2022-09-15T12:58:48.787Z,0.60
2022-09-15T13:01:51.169Z,0.50
2022-09-15T13:04:41.279Z,0.60
2022-09-15T13:07:34.656Z,0.40
2022-09-15T13:10:31.590Z,1.37
2022-09-15T13:13:39.841Z,0.40
2022-09-15T13:16:32.290Z,0.30
2022-09-15T13:19:30.847Z,0.40
2022-09-15T13:22:27.384Z,0.30
2022-09-15T13:25:14.597Z,0.50
2022-09-15T13:28:03.544Z,1.00
2022-09-15T13:31:19.139Z,0.30
2022-09-15T13:38:07.970Z,0.93
2022-09-15T13:41:18.353Z,0.50
2022-09-15T13:44:14.163Z,0.40
2022-09-15T13:47:31.649Z,0.50
2022-09-15T13:50:26.338Z,0.60
2022-09-15T13:53:24.240Z,0.43
2022-09-15T13:56:29.978Z,0.50
2022-09-15T13:59:24.195Z,0.50
2022-09-15T14:02:12.825Z,0.40
2022-09-15T14:04:59.817Z,0.40
2022-09-15T14:07:55.776Z,0.40
2022-09-15T14:10:58.204Z,0.63
2022-09-15T14:13:47.604Z,0.33
2022-09-15T14:16:36.877Z,0.50
2022-09-15T14:19:34.777Z,0.30
2022-09-15T14:22:35.199Z,0.50
2022-09-15T14:25:22.386Z,0.30
2022-09-15T14:28:19.348Z,0.57
2022-09-15T14:31:06.326Z,0.37
2022-09-15T14:33:53.418Z,1.57
2022-09-15T14:36:40.978Z,0.77
2022-09-15T14:39:28.017Z,0.53
2022-09-15T14:42:22.638Z,0.67
2022-09-15T14:48:18.375Z,0.57
2022-09-15T14:51:19.033Z,0.53
2022-09-15T14:54:09.321Z,0.70
2022-09-15T14:57:01.289Z,0.97
2022-09-15T14:59:56.435Z,0.60
2022-09-15T15:03:03.878Z,0.60
2022-09-15T15:06:12.739Z,0.60
2022-09-15T15:09:28.919Z,1.13
2022-09-15T15:12:23.603Z,0.80
2022-09-15T15:15:12.635Z,0.50
2022-09-15T15:17:59.572Z,0.53
2022-09-15T15:20:49.954Z,0.40
2022-09-15T15:23:46.904Z,0.80
2022-09-15T15:26:35.779Z,0.40
2022-09-15T15:29:40.441Z,0.60
2022-09-15T15:32:34.410Z,0.70
2022-09-15T15:35:22.598Z,0.53
2022-09-15T15:38:18.182Z,0.90
2022-09-15T15:41:07.989Z,0.70
2022-09-15T15:43:59.253Z,0.80
2022-09-15T15:46:58.431Z,0.67
2022-09-15T15:50:11.735Z,0.70
2022-09-15T15:52:52.920Z,1.47
2022-09-15T15:55:41.879Z,0.80
2022-09-15T15:58:28.824Z,0.90
2022-09-15T16:01:15.818Z,0.80
2022-09-15T16:04:02.946Z,0.70
2022-09-15T16:06:50.864Z,0.90
2022-09-15T16:09:38.072Z,0.83
2022-09-15T16:12:25.010Z,1.17
2022-09-15T16:15:17.874Z,2.70
2022-09-15T16:18:04.865Z,1.00
2022-09-15T16:20:52.432Z,8.53
2022-09-15T16:23:39.508Z,3.70
2022-09-15T16:26:26.408Z,1.50
2022-09-15T16:29:13.334Z,1.23
2022-09-15T16:32:00.273Z,1.27
2022-09-15T16:34:48.094Z,0.90
2022-09-15T16:37:35.015Z,1.20
2022-09-15T16:40:21.950Z,1.23
2022-09-15T16:43:12.866Z,1.20
2022-09-15T16:45:59.802Z,1.20
2022-09-15T16:48:49.355Z,1.27
2022-09-15T16:51:36.393Z,1.20
2022-09-15T16:54:23.354Z,1.00
2022-09-15T16:57:10.229Z,1.20
2022-09-15T16:59:57.125Z,2.40
2022-09-15T17:02:44.191Z,1.30
2022-09-15T17:05:36.398Z,1.57
2022-09-15T17:08:29.503Z,1.70
2022-09-15T17:11:18.796Z,1.60
2022-09-15T17:14:06.146Z,1.60
2022-09-15T17:16:53.060Z,1.90
2022-09-15T17:19:40.024Z,2.30
2022-09-15T17:22:27.093Z,1.90
2022-09-15T17:25:33.833Z,1.90
2022-09-15T17:28:22.509Z,1.50
2022-09-15T17:31:14.731Z,1.77
2022-09-15T17:34:02.611Z,2.33
2022-09-15T17:36:49.523Z,2.67
2022-09-15T17:39:36.875Z,1.73
2022-09-15T17:42:23.826Z,2.23
2022-09-15T17:45:18.521Z,3.47
2022-09-15T17:48:05.747Z,1.87
2022-09-15T17:50:52.798Z,1.80
2022-09-15T17:53:40.314Z,2.57
2022-09-15T17:56:27.233Z,3.30
2022-09-15T17:59:16.224Z,1.63
2022-09-15T18:02:03.548Z,1.90
2022-09-15T18:04:50.598Z,2.50
2022-09-15T18:07:37.583Z,2.20
2022-09-15T18:10:25.413Z,2.10
2022-09-15T18:13:18.123Z,2.00
2022-09-15T18:16:06.718Z,2.00
2022-09-15T18:18:53.743Z,2.43
2022-09-15T18:21:40.774Z,1.70
2022-09-15T18:24:28.381Z,1.67
2022-09-15T18:27:15.486Z,2.90
2022-09-15T18:30:02.458Z,2.77
2022-09-15T18:32:49.758Z,2.40
2022-09-15T18:35:39.940Z,2.93
2022-09-15T18:38:26.921Z,2.03
2022-09-15T18:41:13.832Z,2.70
2022-09-15T18:44:00.908Z,3.30
2022-09-15T18:46:47.866Z,3.23
2022-09-15T18:49:34.967Z,2.10
2022-09-15T18:52:22.210Z,2.10
2022-09-15T18:55:14.620Z,2.40
2022-09-15T18:58:01.621Z,2.33
2022-09-15T19:00:49.033Z,2.23
2022-09-15T19:03:37.722Z,2.20
2022-09-15T19:06:24.650Z,2.63
2022-09-15T19:09:11.567Z,2.50
2022-09-15T19:11:58.590Z,2.30
2022-09-15T19:14:46.742Z,3.43
2022-09-15T19:17:33.770Z,2.20
2022-09-15T19:20:20.702Z,2.37
2022-09-15T19:23:08.233Z,2.00
2022-09-15T19:25:55.150Z,6.37
2022-09-15T19:28:45.746Z,2.80
2022-09-15T19:31:32.718Z,2.83
2022-09-15T19:34:19.780Z,2.43
2022-09-15T19:37:12.127Z,2.63
2022-09-15T19:40:02.751Z,1.93
2022-09-15T19:42:50.003Z,3.93
2022-09-15T19:45:36.988Z,1.97
2022-09-15T19:48:23.898Z,2.00
2022-09-15T19:51:12.526Z,2.00
2022-09-15T19:53:59.845Z,2.37
2022-09-15T19:56:46.755Z,2.40
2022-09-15T19:59:33.927Z,2.47
2022-09-15T20:02:20.939Z,2.23
2022-09-15T20:05:08.586Z,2.03
2022-09-15T20:07:55.537Z,3.27
2022-09-15T20:10:42.446Z,2.60
2022-09-15T20:13:29.345Z,2.47
2022-09-15T20:16:18.715Z,2.83
2022-09-15T20:19:06.159Z,3.03
2022-09-15T20:21:54.313Z,2.20
2022-09-15T20:24:41.252Z,2.20
2022-09-15T20:27:28.310Z,3.60
2022-09-15T20:30:15.362Z,2.33
2022-09-15T20:33:02.270Z,3.13
2022-09-15T20:35:49.171Z,2.13
2022-09-15T20:38:37.386Z,3.37
2022-09-15T20:41:26.563Z,2.40
2022-09-15T20:44:14.522Z,2.17
2022-09-15T20:47:01.433Z,1.80
2022-09-15T20:49:48.635Z,2.33
2022-09-15T20:52:38.410Z,1.97
2022-09-15T20:55:25.655Z,2.60
2022-09-15T20:58:12.577Z,3.97
2022-09-15T21:01:08.455Z,2.20
2022-09-15T21:03:55.968Z,2.90
2022-09-15T21:06:43.161Z,2.43
2022-09-15T21:09:30.062Z,2.00
2022-09-15T21:12:16.974Z,3.53
2022-09-15T21:15:04.355Z,2.80
2022-09-15T21:17:51.292Z,2.67
2022-09-15T21:20:38.282Z,2.90
2022-09-15T21:23:26.681Z,2.50
2022-09-15T21:26:25.282Z,2.73
2022-09-15T21:29:12.292Z,2.83
2022-09-15T21:31:59.294Z,2.43
2022-09-15T21:34:47.225Z,2.80
2022-09-15T21:37:34.444Z,2.97
2022-09-15T21:40:21.457Z,3.07
2022-09-15T21:43:08.370Z,2.37
2022-09-15T21:45:58.922Z,2.63
2022-09-15T21:48:47.304Z,2.60
2022-09-15T21:51:34.262Z,2.47
2022-09-15T21:54:21.304Z,3.33
2022-09-15T21:57:08.226Z,2.50
2022-09-15T21:59:55.182Z,2.73
2022-09-15T22:02:42.114Z,2.77
2022-09-15T22:05:29.754Z,2.60
2022-09-15T22:08:16.741Z,2.63
2022-09-15T22:11:04.240Z,2.80
2022-09-15T22:13:51.383Z,3.03
2022-09-15T22:16:39.996Z,2.90
2022-09-15T22:19:27.057Z,2.77
2022-09-15T22:22:13.970Z,2.70
2022-09-15T22:25:00.935Z,2.77
2022-09-15T22:27:47.865Z,3.27
2022-09-15T22:30:34.759Z,3.10
2022-09-15T22:33:21.654Z,3.00
2022-09-15T22:36:11.029Z,3.83
2022-09-15T22:39:04.281Z,3.40
2022-09-15T22:41:51.544Z,3.57
2022-09-15T22:44:38.437Z,3.30
2022-09-15T22:47:25.454Z,3.60
2022-09-15T22:50:12.403Z,3.80
2022-09-15T22:52:59.338Z,3.40
2022-09-15T22:55:46.281Z,3.70
2022-09-15T22:58:35.114Z,3.43
2022-09-15T23:01:25.630Z,3.30
2022-09-15T23:04:12.587Z,3.30
2022-09-15T23:06:59.514Z,3.57
2022-09-15T23:09:46.852Z,3.40
2022-09-15T23:12:34.759Z,3.47
2022-09-15T23:15:21.646Z,3.47
2022-09-15T23:18:08.614Z,3.87
2022-09-15T23:20:57.175Z,3.53
2022-09-15T23:23:48.710Z,4.27
2022-09-15T23:26:35.687Z,3.80
2022-09-15T23:29:24.785Z,3.90
2022-09-15T23:32:11.710Z,3.80
2022-09-15T23:34:58.687Z,4.10
2022-09-15T23:37:45.575Z,4.20
2022-09-15T23:40:33.060Z,4.20
2022-09-15T23:43:19.995Z,3.90
2022-09-15T23:46:07.081Z,3.40
2022-09-15T23:48:54.123Z,4.13
2022-09-15T23:51:41.126Z,4.57
2022-09-15T23:54:28.059Z,4.27
2022-09-15T23:57:14.996Z,4.53
